Time;durP1;ratioP1;P1;durP2;ratioP2;P2;SDS_P1;SDS_P2;PMS_P1;PMS_P2;Temp;Humidity;BMP_temperature;BMP_pressure;BME280_temperature;BME280_humidity;BME280_pressure;Samples;Min_cycle;Max_cycle;Signal;HPM_P1;HPM_P2
2023/05/03 00:01:49;;;;;;;0.70;0.70;;;4.30;99.90;;;;;;5025531;28;20041;-77
2023/05/03 00:04:17;;;;;;;0.60;0.60;;;3.90;99.90;;;;;;5030720;28;20045;-78
2023/05/03 00:06:44;;;;;;;0.70;0.70;;;4.00;99.90;;;;;;5034223;28;20044;-79
2023/05/03 00:09:09;;;;;;;;;;;4.20;99.90;;;;;;5032096;28;20040;-79
2023/05/03 00:11:36;;;;;;;0.60;0.60;;;4.30;99.90;;;;;;5032919;28;20938;-78
2023/05/03 00:14:02;;;;;;;0.70;0.70;;;4.50;99.90;;;;;;5016443;28;20049;-79
2023/05/03 00:16:27;;;;;;;0.90;0.90;;;4.70;99.90;;;;;;5032580;28;20044;-79
2023/05/03 00:18:53;;;;;;;0.60;0.60;;;4.80;99.90;;;;;;5014183;28;20045;-81
2023/05/03 00:21:19;;;;;;;0.90;0.90;;;5.40;99.90;;;;;;5035796;28;20381;-81
2023/05/03 00:23:44;;;;;;;0.70;0.70;;;5.10;99.90;;;;;;4998716;28;20045;-83
2023/05/03 00:26:10;;;;;;;0.70;0.70;;;5.20;99.90;;;;;;5013790;28;20047;-81
2023/05/03 00:28:36;;;;;;;0.60;0.60;;;5.30;99.90;;;;;;5032900;28;20036;-81
2023/05/03 00:31:09;;;;;;;0.77;0.77;;;5.40;99.90;;;;;;5014490;28;20175;-81
2023/05/03 00:33:38;;;;;;;0.50;0.50;;;5.50;99.90;;;;;;5026707;28;20052;-78
2023/05/03 00:36:14;;;;;;;0.65;0.65;;;5.90;99.90;;;;;;5013056;28;20052;-78
2023/05/03 00:38:40;;;;;;;0.80;0.80;;;5.60;99.90;;;;;;5015727;28;20047;-79
2023/05/03 00:41:10;;;;;;;0.52;0.52;;;5.70;99.90;;;;;;5031208;28;20037;-79
2023/05/03 00:43:36;;;;;;;0.57;0.57;;;5.80;99.90;;;;;;5033808;28;20513;-80
2023/05/03 00:46:04;;;;;;;0.50;0.50;;;6.00;99.90;;;;;;5015168;28;20045;-79
2023/05/03 00:48:29;;;;;;;0.90;0.88;;;6.40;99.90;;;;;;5031247;28;20040;-80
2023/05/03 00:50:59;;;;;;;0.60;0.60;;;5.90;99.90;;;;;;5014749;28;20047;-78
2023/05/03 00:53:26;;;;;;;1.48;0.95;;;5.90;99.90;;;;;;5033395;28;20057;-78
2023/05/03 00:55:52;;;;;;;0.50;0.50;;;5.90;99.90;;;;;;5020245;28;20101;-78
2023/05/03 00:58:19;;;;;;;0.50;0.50;;;6.00;99.90;;;;;;5036773;28;20036;-78
2023/05/03 01:00:49;;;;;;;0.60;0.60;;;6.00;99.90;;;;;;5018021;28;20112;-78
2023/05/03 01:03:15;;;;;;;0.50;0.50;;;6.00;99.90;;;;;;5001821;28;20044;-79
2023/05/03 01:05:51;;;;;;;0.57;0.57;;;6.10;99.90;;;;;;5036727;28;20394;-82
2023/05/03 01:08:28;;;;;;;0.70;0.70;;;6.00;99.90;;;;;;5035508;28;20509;-79
2023/05/03 01:11:05;;;;;;;0.63;0.63;;;6.10;99.90;;;;;;5015170;28;20065;-82
2023/05/03 01:13:55;;;;;;;0.57;0.57;;;6.00;99.90;;;;;;5032690;28;20055;-80
2023/05/03 01:16:39;;;;;;;0.60;0.60;;;6.00;99.90;;;;;;5015989;28;20068;-80
2023/05/03 01:19:27;;;;;;;0.60;0.60;;;6.10;99.90;;;;;;5031389;28;20037;-81
2023/05/03 01:22:09;;;;;;;0.50;0.50;;;6.10;99.90;;;;;;5015391;28;20052;-80
2023/05/03 01:24:37;;;;;;;0.52;0.52;;;6.10;99.90;;;;;;5034320;28;20045;-81
2023/05/03 01:27:04;;;;;;;0.60;0.60;;;6.10;99.90;;;;;;5034679;28;20051;-85
2023/05/03 01:29:29;;;;;;;0.63;0.63;;;6.00;99.90;;;;;;5016046;28;20080;-81
2023/05/03 01:32:07;;;;;;;0.70;0.70;;;6.00;99.90;;;;;;5001259;28;20489;-82
2023/05/03 01:34:48;;;;;;;0.55;0.55;;;6.00;99.90;;;;;;5016962;28;20114;-80
2023/05/03 01:37:14;;;;;;;0.40;0.40;;;6.00;99.90;;;;;;5049011;28;20052;-81
2023/05/03 01:39:44;;;;;;;;;;;6.00;99.90;;;;;;5031051;28;20053;-79
2023/05/03 01:42:13;;;;;;;0.47;0.47;;;6.00;99.90;;;;;;5028935;28;19916;-81
2023/05/03 01:44:40;;;;;;;0.60;0.60;;;5.90;99.90;;;;;;5010653;28;20047;-78
2023/05/03 01:47:07;;;;;;;1.00;0.95;;;5.90;99.90;;;;;;5033462;28;20041;-79
2023/05/03 01:49:34;;;;;;;0.60;0.60;;;5.90;99.90;;;;;;5033138;28;20433;-79
2023/05/03 01:51:59;;;;;;;0.60;0.60;;;5.80;99.90;;;;;;5031778;28;20048;-80
2023/05/03 01:54:25;;;;;;;0.70;0.70;;;5.80;99.90;;;;;;5017106;28;20446;-79
2023/05/03 01:56:51;;;;;;;0.52;0.52;;;5.80;99.90;;;;;;5049351;28;20041;-80
2023/05/03 01:59:17;;;;;;;0.50;0.50;;;5.70;99.90;;;;;;5031654;28;20028;-79
2023/05/03 02:01:42;;;;;;;0.70;0.70;;;5.70;99.90;;;;;;5033893;28;20049;-78
2023/05/03 02:04:08;;;;;;;0.63;0.63;;;5.70;99.90;;;;;;5016906;28;20110;-79
2023/05/03 02:06:34;;;;;;;0.70;0.70;;;6.50;99.90;;;;;;5035663;28;20047;-78
2023/05/03 02:08:59;;;;;;;0.60;0.60;;;5.70;99.90;;;;;;5015638;28;20461;-79
2023/05/03 02:11:25;;;;;;;0.50;0.50;;;5.60;99.90;;;;;;5033521;28;20049;-80
2023/05/03 02:13:51;;;;;;;0.57;0.57;;;5.60;99.90;;;;;;5005294;28;20305;-79
2023/05/03 02:16:17;;;;;;;0.70;0.70;;;5.80;99.90;;;;;;5003392;28;20100;-80
2023/05/03 02:18:43;;;;;;;0.70;0.70;;;5.80;99.90;;;;;;5034802;28;20041;-79
2023/05/03 02:21:09;;;;;;;0.60;0.60;;;5.60;99.90;;;;;;5017498;28;20039;-79
2023/05/03 02:23:35;;;;;;;0.60;0.60;;;5.50;99.90;;;;;;5030811;28;20053;-81
2023/05/03 02:26:01;;;;;;;0.70;0.70;;;5.50;99.90;;;;;;5015042;28;20045;-80
2023/05/03 02:28:27;;;;;;;0.50;0.50;;;5.50;99.90;;;;;;5034401;28;20068;-81
2023/05/03 02:30:52;;;;;;;0.50;0.50;;;5.60;99.90;;;;;;5013171;28;20422;-80
2023/05/03 02:33:21;;;;;;;0.60;0.60;;;5.70;99.90;;;;;;5018425;28;20060;-79
2023/05/03 02:35:47;;;;;;;0.55;0.55;;;5.90;99.90;;;;;;5039393;28;20100;-79
2023/05/03 02:38:13;;;;;;;0.60;0.60;;;5.70;99.90;;;;;;5037374;28;20049;-80
2023/05/03 02:40:38;;;;;;;0.50;0.50;;;5.70;99.90;;;;;;5018151;28;20393;-82
2023/05/03 02:43:04;;;;;;;0.73;0.73;;;5.70;99.90;;;;;;5036096;28;20048;-81
2023/05/03 02:45:30;;;;;;;0.60;0.60;;;5.80;99.90;;;;;;5017847;28;20622;-82
2023/05/03 02:47:55;;;;;;;0.40;0.40;;;5.80;99.90;;;;;;5003052;28;20420;-80
2023/05/03 02:50:21;;;;;;;0.45;0.45;;;5.80;99.90;;;;;;5032186;28;20048;-82
2023/05/03 02:52:47;;;;;;;0.50;0.50;;;5.80;99.90;;;;;;5033679;28;20090;-81
2023/05/03 02:55:12;;;;;;;0.60;0.60;;;5.80;99.90;;;;;;5030933;28;20037;-81
2023/05/03 02:57:38;;;;;;;0.52;0.52;;;5.80;99.90;;;;;;5015864;28;20037;-81
2023/05/03 03:00:05;;;;;;;0.50;0.50;;;5.80;99.90;;;;;;5016691;28;20041;-80
2023/05/03 03:02:30;;;;;;;0.50;0.50;;;5.80;99.90;;;;;;5034303;28;20406;-80
2023/05/03 03:04:56;;;;;;;0.50;0.50;;;5.90;99.90;;;;;;5017189;28;20045;-80
2023/05/03 03:07:22;;;;;;;0.50;0.50;;;5.80;99.90;;;;;;4999071;28;20481;-81
2023/05/03 03:09:47;;;;;;;0.65;0.65;;;5.80;99.90;;;;;;5030146;28;20037;-81
2023/05/03 03:12:13;;;;;;;0.52;0.52;;;5.80;99.90;;;;;;5017831;28;20166;-82
2023/05/03 03:14:40;;;;;;;0.57;0.57;;;5.80;99.90;;;;;;5013588;28;20055;-81
2023/05/03 03:17:09;;;;;;;0.60;0.60;;;5.80;99.90;;;;;;5008669;28;20044;-80
2023/05/03 03:19:35;;;;;;;0.50;0.50;;;5.80;99.90;;;;;;5032528;28;20037;-80
2023/05/03 03:22:00;;;;;;;0.70;0.70;;;5.80;99.90;;;;;;5025883;28;20090;-80
2023/05/03 03:24:26;;;;;;;0.63;0.63;;;5.70;99.90;;;;;;5030779;28;20048;-81
2023/05/03 03:26:52;;;;;;;0.50;0.50;;;5.70;99.90;;;;;;5029081;28;20045;-81
2023/05/03 03:29:17;;;;;;;0.50;0.50;;;5.70;99.90;;;;;;5010811;28;20041;-81
2023/05/03 03:31:43;;;;;;;0.60;0.60;;;5.70;99.90;;;;;;5028345;28;20053;-82
2023/05/03 03:34:11;;;;;;;0.60;0.60;;;5.70;99.90;;;;;;5011216;28;20041;-82
2023/05/03 03:36:38;;;;;;;0.50;0.50;;;5.60;99.90;;;;;;5029153;28;20324;-79
2023/05/03 03:39:04;;;;;;;0.52;0.52;;;5.60;99.90;;;;;;5031706;28;20486;-80
2023/05/03 03:41:31;;;;;;;0.60;0.60;;;5.40;99.90;;;;;;5031196;28;20040;-80
2023/05/03 03:43:57;;;;;;;0.60;0.60;;;5.30;99.90;;;;;;5029241;28;20032;-80
2023/05/03 03:46:23;;;;;;;0.60;0.60;;;5.20;99.90;;;;;;5011296;28;20437;-82
2023/05/03 03:48:49;;;;;;;0.50;0.50;;;5.20;99.90;;;;;;5014453;28;20336;-79
2023/05/03 03:51:15;;;;;;;0.60;0.60;;;5.20;99.90;;;;;;5031395;28;20422;-79
2023/05/03 03:53:41;;;;;;;0.60;0.60;;;5.20;99.90;;;;;;5018041;28;20045;-79
2023/05/03 03:56:07;;;;;;;0.70;0.70;;;5.00;99.90;;;;;;5032898;28;20189;-80
2023/05/03 03:58:32;;;;;;;0.60;0.60;;;5.00;99.90;;;;;;5028663;28;20036;-80
2023/05/03 04:00:59;;;;;;;0.60;0.60;;;5.60;99.90;;;;;;4999343;28;20041;-81
2023/05/03 04:03:25;;;;;;;0.60;0.60;;;5.10;99.90;;;;;;5030114;28;20151;-80
2023/05/03 04:05:51;;;;;;;0.50;0.50;;;5.10;99.90;;;;;;5025945;28;20044;-82
2023/05/03 04:08:17;;;;;;;0.60;0.60;;;5.10;99.90;;;;;;5033723;28;20040;-81
2023/05/03 04:10:43;;;;;;;0.50;0.50;;;5.00;99.90;;;;;;5030442;28;20045;-81
2023/05/03 04:13:09;;;;;;;0.65;0.60;;;5.10;99.90;;;;;;4982454;28;20045;-81
2023/05/03 04:15:35;;;;;;;0.55;0.55;;;5.00;99.90;;;;;;5012651;28;20459;-79
2023/05/03 04:18:00;;;;;;;0.68;0.68;;;5.00;99.90;;;;;;5029242;28;20037;-78
2023/05/03 04:20:26;;;;;;;0.63;0.63;;;4.90;99.90;;;;;;5006430;28;20040;-79
2023/05/03 04:22:52;;;;;;;0.60;0.60;;;5.00;99.90;;;;;;5025094;28;20049;-78
2023/05/03 04:25:18;;;;;;;1.17;1.17;;;5.00;99.90;;;;;;5029145;28;20037;-79
2023/05/03 04:27:44;;;;;;;0.60;0.60;;;5.00;99.90;;;;;;5029661;28;20047;-78
2023/05/03 04:30:13;;;;;;;0.60;0.60;;;5.10;99.90;;;;;;5025197;28;20047;-79
2023/05/03 04:32:39;;;;;;;0.63;0.63;;;5.20;99.90;;;;;;5027861;28;20401;-76
2023/05/03 04:35:09;;;;;;;0.77;0.77;;;5.30;99.90;;;;;;5021841;28;20042;-77
2023/05/03 04:37:36;;;;;;;0.60;0.60;;;5.40;99.90;;;;;;5021250;28;20048;-77
2023/05/03 04:40:06;;;;;;;0.68;0.68;;;5.50;99.90;;;;;;5024502;28;20049;-79
2023/05/03 04:42:32;;;;;;;0.50;0.50;;;5.60;99.90;;;;;;5007430;28;20118;-80
2023/05/03 04:44:57;;;;;;;1.33;0.80;;;5.70;99.90;;;;;;5027943;28;20486;-79
2023/05/03 04:47:24;;;;;;;0.50;0.50;;;5.80;99.90;;;;;;5026795;28;20045;-80
2023/05/03 04:49:50;;;;;;;0.60;0.60;;;5.80;99.90;;;;;;5008716;28;20055;-80
2023/05/03 04:52:16;;;;;;;0.60;0.60;;;5.90;99.90;;;;;;5024708;28;20048;-79
2023/05/03 04:54:41;;;;;;;0.45;0.45;;;6.00;99.90;;;;;;4978393;28;20045;-80
2023/05/03 04:57:09;;;;;;;0.50;0.50;;;6.10;99.90;;;;;;5024973;28;20045;-79
2023/05/03 04:59:35;;;;;;;0.60;0.60;;;6.20;99.90;;;;;;5022710;28;20037;-79
2023/05/03 05:02:01;;;;;;;;;;;6.20;99.90;;;;;;5007869;28;20041;-79
2023/05/03 05:04:26;;;;;;;0.50;0.50;;;6.30;99.90;;;;;;5045256;28;19927;-80
2023/05/03 05:06:53;;;;;;;0.60;0.60;;;6.30;99.90;;;;;;5027806;28;20091;-79
2023/05/03 05:09:23;;;;;;;0.50;0.50;;;6.40;99.90;;;;;;5010943;28;20124;-81
2023/05/03 05:11:49;;;;;;;0.50;0.50;;;6.40;99.90;;;;;;5021004;28;20124;-78
2023/05/03 05:14:15;;;;;;;0.60;0.60;;;6.50;99.90;;;;;;5008574;28;20083;-80
2023/05/03 05:16:41;;;;;;;0.60;0.60;;;6.60;99.90;;;;;;5012651;28;20112;-81
2023/05/03 05:19:07;;;;;;;0.45;0.45;;;6.60;99.90;;;;;;5008180;28;20065;-81
2023/05/03 05:21:33;;;;;;;0.57;0.57;;;6.70;99.90;;;;;;5027188;28;20037;-81
2023/05/03 05:24:00;;;;;;;0.50;0.50;;;6.80;99.90;;;;;;5038650;28;20150;-81
2023/05/03 05:26:26;;;;;;;;;;;6.90;99.90;;;;;;5011556;28;20048;-80
2023/05/03 05:28:52;;;;;;;0.50;0.50;;;7.00;99.90;;;;;;5044993;28;20009;-79
2023/05/03 05:31:17;;;;;;;0.60;0.60;;;7.10;99.90;;;;;;5024984;28;20091;-80
2023/05/03 05:33:43;;;;;;;0.50;0.50;;;7.20;99.90;;;;;;5028739;28;20056;-79
2023/05/03 05:36:10;;;;;;;0.40;0.40;;;7.30;99.90;;;;;;5007839;28;20044;-80
2023/05/03 05:38:36;;;;;;;0.50;0.50;;;7.40;99.90;;;;;;5007538;28;20112;-80
2023/05/03 05:41:02;;;;;;;0.40;0.40;;;7.40;99.90;;;;;;5031780;28;20120;-80
2023/05/03 05:43:27;;;;;;;0.50;0.50;;;7.60;99.90;;;;;;5014765;28;20033;-79
2023/05/03 05:45:53;;;;;;;0.70;0.70;;;7.70;99.90;;;;;;5032092;28;20044;-80
2023/05/03 05:48:19;;;;;;;0.50;0.50;;;7.70;99.90;;;;;;5029875;28;20041;-79
2023/05/03 05:50:45;;;;;;;0.43;0.43;;;7.80;99.90;;;;;;5001895;28;20052;-81
2023/05/03 05:53:10;;;;;;;0.50;0.50;;;7.90;99.90;;;;;;5027894;28;20753;-81
2023/05/03 05:55:36;;;;;;;0.50;0.50;;;7.90;99.90;;;;;;5030764;28;20486;-79
2023/05/03 05:58:02;;;;;;;0.50;0.50;;;8.00;99.90;;;;;;5013371;28;20048;-82
2023/05/03 06:00:29;;;;;;;;;;;8.10;99.90;;;;;;5017939;28;20033;-82
2023/05/03 06:02:55;;;;;;;0.50;0.50;;;8.20;99.90;;;;;;5020820;28;19925;-81
2023/05/03 06:05:21;;;;;;;0.50;0.50;;;8.20;99.90;;;;;;5009985;28;20041;-81
2023/05/03 06:07:47;;;;;;;0.50;0.50;;;8.30;99.90;;;;;;5013667;28;20498;-80
2023/05/03 06:10:13;;;;;;;0.50;0.50;;;8.30;99.90;;;;;;5032876;28;20113;-80
2023/05/03 06:12:40;;;;;;;0.50;0.50;;;8.40;99.90;;;;;;5016596;28;20510;-80
2023/05/03 06:15:06;;;;;;;0.40;0.40;;;8.50;99.90;;;;;;5005661;28;20045;-80
2023/05/03 06:17:32;;;;;;;0.30;0.30;;;8.50;99.90;;;;;;4999114;28;20036;-80
2023/05/03 06:19:58;;;;;;;0.50;0.50;;;8.60;99.90;;;;;;5015964;28;20037;-81
2023/05/03 06:22:24;;;;;;;0.50;0.50;;;8.70;99.90;;;;;;5010339;28;20061;-81
2023/05/03 06:24:50;;;;;;;0.40;0.40;;;8.80;99.90;;;;;;5028205;28;20049;-80
2023/05/03 06:27:16;;;;;;;0.50;0.50;;;8.80;99.90;;;;;;5014095;28;20041;-81
2023/05/03 06:29:43;;;;;;;0.32;0.32;;;8.80;99.90;;;;;;5030084;28;20189;-81
2023/05/03 06:32:09;;;;;;;0.40;0.40;;;8.90;99.90;;;;;;5012567;28;20064;-81
2023/05/03 06:34:36;;;;;;;;;;;9.00;99.90;;;;;;5040049;28;20045;-81
2023/05/03 06:37:02;;;;;;;0.40;0.40;;;9.00;99.90;;;;;;5011947;28;19971;-81
2023/05/03 06:39:28;;;;;;;0.45;0.45;;;9.00;99.90;;;;;;5020918;28;20421;-81
2023/05/03 06:41:53;;;;;;;0.30;0.30;;;9.10;99.90;;;;;;5014414;28;20033;-80
2023/05/03 06:44:19;;;;;;;0.40;0.40;;;9.10;99.90;;;;;;5009808;28;20052;-81
2023/05/03 06:46:45;;;;;;;0.45;0.45;;;9.20;99.90;;;;;;5008313;28;20132;-81
2023/05/03 06:49:11;;;;;;;0.50;0.50;;;9.30;99.90;;;;;;4993331;28;20363;-80
2023/05/03 06:51:36;;;;;;;0.60;0.60;;;9.40;99.90;;;;;;5029994;28;20390;-79
2023/05/03 06:54:05;;;;;;;0.38;0.38;;;9.50;99.90;;;;;;4997389;28;20079;-80
2023/05/03 06:56:32;;;;;;;0.32;0.32;;;9.50;99.90;;;;;;5017851;28;20102;-82
2023/05/03 06:58:59;;;;;;;0.30;0.30;;;9.60;99.90;;;;;;5036986;28;20049;-79
2023/05/03 07:01:25;;;;;;;0.40;0.40;;;9.70;99.90;;;;;;5015791;28;20033;-81
2023/05/03 07:03:50;;;;;;;0.20;0.20;;;9.80;99.90;;;;;;5011016;28;20411;-81
2023/05/03 07:06:17;;;;;;;0.30;0.30;;;9.80;99.90;;;;;;5015941;28;20051;-80
2023/05/03 07:08:43;;;;;;;0.40;0.40;;;9.90;99.90;;;;;;5014850;28;20057;-80
2023/05/03 07:11:09;;;;;;;0.50;0.50;;;9.90;99.90;;;;;;5032853;28;20072;-80
2023/05/03 07:13:35;;;;;;;0.40;0.40;;;9.90;99.90;;;;;;5017009;28;20121;-81
2023/05/03 07:16:00;;;;;;;0.40;0.40;;;9.80;99.90;;;;;;5029836;28;20033;-80
2023/05/03 07:18:26;;;;;;;0.40;0.40;;;9.80;99.90;;;;;;5031380;28;20060;-81
2023/05/03 07:20:52;;;;;;;0.40;0.40;;;9.80;99.90;;;;;;5014530;28;20033;-80
2023/05/03 07:23:18;;;;;;;0.50;0.50;;;9.90;99.90;;;;;;5025486;28;20446;-78
2023/05/03 07:25:44;;;;;;;0.40;0.40;;;10.00;99.90;;;;;;5011541;28;20044;-78
2023/05/03 07:28:11;;;;;;;0.50;0.50;;;10.10;99.90;;;;;;5029592;28;20567;-80
2023/05/03 07:30:36;;;;;;;0.40;0.40;;;10.20;99.90;;;;;;5015812;28;20096;-80
2023/05/03 07:33:02;;;;;;;0.50;0.50;;;10.40;99.90;;;;;;5013774;28;20138;-81
2023/05/03 07:35:28;;;;;;;0.55;0.55;;;10.50;99.90;;;;;;4992863;28;20044;-80
2023/05/03 07:37:55;;;;;;;0.40;0.40;;;10.60;99.90;;;;;;5028241;28;20033;-79
2023/05/03 07:40:21;;;;;;;0.90;0.50;;;10.60;99.90;;;;;;5029051;28;20041;-80
2023/05/03 07:42:47;;;;;;;;;;;10.70;99.90;;;;;;4997032;28;20747;-80
2023/05/03 07:45:13;;;;;;;0.50;0.50;;;10.80;99.90;;;;;;5024182;28;20003;-80
2023/05/03 07:47:39;;;;;;;0.28;0.28;;;10.70;99.90;;;;;;5022647;28;20049;-80
2023/05/03 07:50:06;;;;;;;0.30;0.30;;;10.80;99.90;;;;;;5025268;28;20041;-80
2023/05/03 07:52:38;;;;;;;0.40;0.40;;;10.90;99.90;;;;;;4999922;28;20578;-80
2023/05/03 07:55:05;;;;;;;0.30;0.30;;;10.90;99.90;;;;;;5021723;28;20092;-80
2023/05/03 07:57:32;;;;;;;0.40;0.40;;;10.90;99.90;;;;;;5030244;28;20497;-79
2023/05/03 07:59:57;;;;;;;0.30;0.30;;;11.00;99.90;;;;;;4998612;28;20126;-79
2023/05/03 08:02:23;;;;;;;0.52;0.52;;;11.10;99.90;;;;;;5011999;28;20091;-79
2023/05/03 08:04:49;;;;;;;0.30;0.30;;;11.20;99.90;;;;;;5011916;28;20040;-79
2023/05/03 08:07:16;;;;;;;0.40;0.40;;;11.20;99.90;;;;;;5028014;28;20067;-79
2023/05/03 08:09:42;;;;;;;0.20;0.20;;;11.40;99.90;;;;;;5012113;28;20052;-79
2023/05/03 08:12:07;;;;;;;;;;;11.40;99.90;;;;;;5026328;28;20056;-80
2023/05/03 08:14:35;;;;;;;0.20;0.20;;;11.30;99.90;;;;;;5028305;28;19925;-79
2023/05/03 08:17:03;;;;;;;0.50;0.50;;;11.20;99.90;;;;;;5009398;28;20055;-80
2023/05/03 08:19:29;;;;;;;0.30;0.30;;;11.20;99.90;;;;;;4990776;28;20077;-79
2023/05/03 08:21:55;;;;;;;0.47;0.47;;;11.20;99.90;;;;;;5024118;28;20049;-79
2023/05/03 08:24:21;;;;;;;0.30;0.30;;;11.20;99.90;;;;;;5027456;28;20037;-80
2023/05/03 08:26:47;;;;;;;0.50;0.50;;;11.10;99.90;;;;;;5012265;28;20045;-79
2023/05/03 08:29:16;;;;;;;0.40;0.40;;;11.00;99.90;;;;;;5030338;28;20049;-79
2023/05/03 08:31:42;;;;;;;0.32;0.32;;;10.80;99.90;;;;;;4996616;28;20446;-79
2023/05/03 08:34:09;;;;;;;0.73;0.73;;;10.80;99.90;;;;;;5023316;28;20049;-79
2023/05/03 08:36:37;;;;;;;0.40;0.40;;;10.80;99.90;;;;;;5025647;28;20048;-79
2023/05/03 08:39:06;;;;;;;0.57;0.57;;;10.90;99.90;;;;;;5010186;28;20041;-78
2023/05/03 08:41:32;;;;;;;0.40;0.40;;;11.10;99.90;;;;;;4990763;28;20033;-79
2023/05/03 08:43:59;;;;;;;3.47;0.93;;;11.10;99.90;;;;;;5012301;28;20049;-79
2023/05/03 08:46:27;;;;;;;0.28;0.28;;;11.00;99.90;;;;;;5031416;28;21401;-80
2023/05/03 08:48:54;;;;;;;0.45;0.45;;;10.90;99.90;;;;;;5029442;28;20037;-79
2023/05/03 08:51:21;;;;;;;0.40;0.40;;;10.80;99.90;;;;;;5005528;28;20167;-79
2023/05/03 08:53:48;;;;;;;0.30;0.30;;;10.80;99.90;;;;;;4993404;28;20402;-79
2023/05/03 08:56:29;;;;;;;0.40;0.40;;;10.70;99.90;;;;;;5028747;28;20050;-79
2023/05/03 08:58:55;;;;;;;0.65;0.50;;;10.60;99.90;;;;;;5011233;28;20041;-80
2023/05/03 09:01:20;;;;;;;;;;;10.40;99.90;;;;;;5026903;28;20108;-79
2023/05/03 09:03:50;;;;;;;0.60;0.60;;;10.50;99.90;;;;;;5026931;28;20351;-79
2023/05/03 09:06:26;;;;;;;0.40;0.40;;;10.50;99.90;;;;;;5024875;28;20506;-80
2023/05/03 09:08:53;;;;;;;0.45;0.45;;;10.50;99.90;;;;;;5026917;28;20055;-79
2023/05/03 09:11:26;;;;;;;0.32;0.32;;;10.60;99.90;;;;;;5027269;28;20074;-79
2023/05/03 09:13:53;;;;;;;0.40;0.40;;;10.60;99.90;;;;;;5012136;28;20044;-79
2023/05/03 09:16:26;;;;;;;0.40;0.40;;;10.60;99.90;;;;;;5014693;28;20045;-79
2023/05/03 09:19:00;;;;;;;0.30;0.30;;;10.70;99.90;;;;;;5043221;28;20056;-78
2023/05/03 09:21:30;;;;;;;0.30;0.30;;;10.90;99.90;;;;;;5029955;28;20051;-79
2023/05/03 09:23:56;;;;;;;0.30;0.30;;;11.00;99.90;;;;;;5009766;28;20090;-79
2023/05/03 09:26:33;;;;;;;0.40;0.40;;;11.00;99.90;;;;;;5018718;28;20052;-78
2023/05/03 09:29:00;;;;;;;0.22;0.22;;;10.90;99.90;;;;;;5011843;28;20139;-78
2023/05/03 09:31:30;;;;;;;0.30;0.30;;;10.80;99.90;;;;;;5028206;28;20049;-79
2023/05/03 09:33:56;;;;;;;0.45;0.45;;;10.90;99.90;;;;;;5029359;28;20136;-79
2023/05/03 09:36:23;;;;;;;0.50;0.50;;;11.00;99.90;;;;;;4998797;28;20037;-80
2023/05/03 09:38:50;;;;;;;0.50;0.50;;;11.00;99.90;;;;;;5027872;28;20120;-79
2023/05/03 09:41:29;;;;;;;0.38;0.38;;;11.20;99.90;;;;;;5027583;28;20456;-79
2023/05/03 09:44:01;;;;;;;0.43;0.43;;;11.40;99.90;;;;;;5032176;28;20040;-79
2023/05/03 09:46:28;;;;;;;0.40;0.40;;;11.50;99.90;;;;;;5032507;28;20370;-79
2023/05/03 09:48:56;;;;;;;0.40;0.40;;;11.70;99.90;;;;;;5034228;28;20448;-79
2023/05/03 09:51:25;;;;;;;0.40;0.40;;;11.80;99.90;;;;;;5013058;28;20040;-80
2023/05/03 09:53:52;;;;;;;0.40;0.40;;;11.70;99.90;;;;;;5029884;28;20564;-79
2023/05/03 09:56:19;;;;;;;0.30;0.30;;;11.70;99.90;;;;;;5028439;28;20207;-79
2023/05/03 09:58:46;;;;;;;0.30;0.30;;;11.80;99.90;;;;;;5028655;28;20049;-79
2023/05/03 10:01:13;;;;;;;0.32;0.32;;;12.10;99.90;;;;;;5028783;28;20115;-80
2023/05/03 10:03:46;;;;;;;0.40;0.40;;;12.10;99.90;;;;;;5027804;28;20143;-79
2023/05/03 10:06:34;;;;;;;0.20;0.20;;;12.10;99.90;;;;;;5029327;28;20041;-79
2023/05/03 10:09:11;;;;;;;0.40;0.40;;;12.30;99.90;;;;;;5021308;28;20099;-78
2023/05/03 10:11:36;;;;;;;0.32;0.32;;;12.40;99.90;;;;;;5031644;28;20084;-77
2023/05/03 10:14:05;;;;;;;0.30;0.30;;;12.50;99.90;;;;;;5032850;28;20183;-79
2023/05/03 10:16:40;;;;;;;0.30;0.30;;;12.40;99.90;;;;;;5031362;28;20119;-77
2023/05/03 10:19:28;;;;;;;0.30;0.30;;;12.30;99.90;;;;;;5032631;28;20440;-78
2023/05/03 10:22:04;;;;;;;;;;;12.40;99.90;;;;;;5026779;28;20707;-80
2023/05/03 10:24:30;;;;;;;0.30;0.30;;;12.50;99.90;;;;;;5030533;28;19917;-79
2023/05/03 10:26:56;;;;;;;0.40;0.40;;;12.50;99.90;;;;;;5029915;28;20072;-79
2023/05/03 10:29:44;;;;;;;0.40;0.40;;;12.70;99.90;;;;;;5031872;28;20098;-78
2023/05/03 10:32:30;;;;;;;0.30;0.30;;;12.70;99.90;;;;;;5012386;28;20057;-79
2023/05/03 10:34:59;;;;;;;0.32;0.32;;;12.60;99.90;;;;;;5033871;28;20282;-79
2023/05/03 10:37:26;;;;;;;0.40;0.40;;;12.50;99.90;;;;;;5030893;28;20051;-79
2023/05/03 10:39:53;;;;;;;0.43;0.43;;;12.40;99.90;;;;;;5011627;28;20037;-79
2023/05/03 10:42:23;;;;;;;0.55;0.55;;;12.30;99.90;;;;;;5028929;28;20513;-79
2023/05/03 10:44:48;;;;;;;0.40;0.40;;;12.10;99.90;;;;;;5025596;28;20452;-79
2023/05/03 10:47:22;;;;;;;0.30;0.30;;;12.20;99.90;;;;;;5011922;28;20136;-79
2023/05/03 10:50:10;;;;;;;0.22;0.22;;;12.20;99.00;;;;;;5027095;28;20038;-78
2023/05/03 10:52:42;;;;;;;0.40;0.40;;;11.90;99.20;;;;;;5028475;28;20041;-79
2023/05/03 10:55:19;;;;;;;0.30;0.30;;;11.90;98.70;;;;;;5026067;28;20985;-78
2023/05/03 10:57:47;;;;;;;0.30;0.30;;;12.10;98.60;;;;;;5043055;28;20049;-78
2023/05/03 11:00:22;;;;;;;0.30;0.30;;;12.40;99.90;;;;;;5011482;28;20456;-79
2023/05/03 11:03:22;;;;;;;0.40;0.40;;;12.70;98.60;;;;;;5024536;28;20029;-79
2023/05/03 11:05:48;;;;;;;0.30;0.30;;;12.90;98.00;;;;;;5025814;28;20071;-78
2023/05/03 11:08:16;;;;;;;;;;;13.20;99.40;;;;;;5022681;28;20033;-79
2023/05/03 11:10:43;;;;;;;0.35;0.35;;;13.30;97.10;;;;;;5027717;28;19931;-79
2023/05/03 11:13:09;;;;;;;0.30;0.30;;;13.50;99.90;;;;;;5030221;28;20033;-80
2023/05/03 11:15:35;;;;;;;0.20;0.20;;;13.80;99.80;;;;;;4991215;28;20379;-79
2023/05/03 11:18:01;;;;;;;;;;;14.30;99.90;;;;;;5009895;28;20183;-79
2023/05/03 11:20:27;;;;;;;0.35;0.35;;;14.30;96.80;;;;;;5024057;28;20003;-79
2023/05/03 11:22:52;;;;;;;0.30;0.30;;;14.10;96.20;;;;;;5009894;28;20044;-79
2023/05/03 11:25:18;;;;;;;0.30;0.30;;;13.60;96.10;;;;;;5023068;28;20044;-78
2023/05/03 11:27:46;;;;;;;;;;;13.30;95.30;;;;;;5035288;28;20037;-78
2023/05/03 11:30:13;;;;;;;0.40;0.40;;;13.40;96.80;;;;;;5027203;28;19940;-78
2023/05/03 11:32:41;;;;;;;0.30;0.30;;;13.60;95.60;;;;;;5006094;28;20191;-79
2023/05/03 11:35:08;;;;;;;0.43;0.43;;;13.80;96.10;;;;;;5028623;28;20041;-78
2023/05/03 11:37:34;;;;;;;0.30;0.30;;;13.90;97.40;;;;;;5009279;28;20124;-78
2023/05/03 11:40:00;;;;;;;0.32;0.32;;;13.80;97.30;;;;;;5010243;28;20575;-80
2023/05/03 11:42:27;;;;;;;0.47;0.47;;;13.60;97.00;;;;;;5011114;28;20452;-79
2023/05/03 11:44:53;;;;;;;1.02;1.02;;;13.30;97.10;;;;;;5017920;28;20041;-79
2023/05/03 11:47:20;;;;;;;0.30;0.30;;;13.10;96.40;;;;;;5022422;28;20126;-79
2023/05/03 11:49:56;;;;;;;0.35;0.35;;;13.10;97.60;;;;;;5025445;28;20596;-79
2023/05/03 11:52:23;;;;;;;0.50;0.50;;;13.10;98.30;;;;;;5025303;28;20056;-78
2023/05/03 11:54:53;;;;;;;0.20;0.20;;;13.30;98.10;;;;;;5009756;28;20509;-78
2023/05/03 11:57:20;;;;;;;0.30;0.30;;;13.20;96.30;;;;;;5023789;28;20032;-78
2023/05/03 11:59:46;;;;;;;0.28;0.28;;;13.00;95.80;;;;;;5013482;28;20073;-79
2023/05/03 12:02:13;;;;;;;0.30;0.30;;;13.00;96.10;;;;;;5013341;28;20076;-79
2023/05/03 12:04:40;;;;;;;0.40;0.40;;;12.90;97.40;;;;;;5021342;28;20044;-79
2023/05/03 12:07:08;;;;;;;0.20;0.20;;;13.20;98.20;;;;;;5013805;28;20417;-79
2023/05/03 12:09:34;;;;;;;0.30;0.30;;;13.30;97.30;;;;;;5030367;28;20134;-79
2023/05/03 12:12:01;;;;;;;;;;;13.60;99.30;;;;;;5024362;28;20045;-79
2023/05/03 12:14:28;;;;;;;0.38;0.38;;;13.90;99.30;;;;;;5029503;28;20408;-79
2023/05/03 12:16:55;;;;;;;;;;;14.00;97.50;;;;;;5040592;28;20142;-80
2023/05/03 12:19:28;;;;;;;0.30;0.30;;;14.10;97.60;;;;;;5026324;28;19917;-79
2023/05/03 12:21:55;;;;;;;0.30;0.30;;;13.80;95.00;;;;;;5026869;28;20152;-79
2023/05/03 12:24:22;;;;;;;0.40;0.40;;;13.60;96.00;;;;;;5026139;28;20041;-79
2023/05/03 12:26:51;;;;;;;0.30;0.30;;;13.50;98.60;;;;;;5016091;28;20045;-79
2023/05/03 12:29:18;;;;;;;0.30;0.30;;;13.90;99.70;;;;;;5023079;28;20386;-79
2023/05/03 12:31:44;;;;;;;0.30;0.30;;;14.50;99.90;;;;;;5012471;28;20053;-79
2023/05/03 12:34:10;;;;;;;0.30;0.30;;;15.00;97.70;;;;;;5025995;28;20049;-80
2023/05/03 12:36:36;;;;;;;0.30;0.30;;;15.10;95.10;;;;;;5020786;28;20051;-79
2023/05/03 12:39:02;;;;;;;0.20;0.20;;;14.70;94.30;;;;;;5027640;28;20071;-80
2023/05/03 12:41:30;;;;;;;0.32;0.32;;;14.50;95.20;;;;;;5010435;28;20037;-79
2023/05/03 12:44:01;;;;;;;0.47;0.47;;;14.20;96.00;;;;;;5013235;28;20053;-79
2023/05/03 12:46:27;;;;;;;0.30;0.30;;;14.30;96.90;;;;;;5035434;28;20041;-79
2023/05/03 12:48:53;;;;;;;0.40;0.40;;;14.30;97.00;;;;;;5032123;28;20048;-79
2023/05/03 12:51:18;;;;;;;0.22;0.22;;;14.40;97.90;;;;;;5011644;28;20098;-79
2023/05/03 12:53:49;;;;;;;0.30;0.30;;;14.60;95.70;;;;;;5028298;28;20041;-79
2023/05/03 12:56:15;;;;;;;0.30;0.30;;;14.60;95.10;;;;;;5029728;28;20037;-79
2023/05/03 12:58:43;;;;;;;;;;;14.40;95.00;;;;;;5031722;28;20064;-79
2023/05/03 13:01:10;;;;;;;0.50;0.50;;;14.40;96.50;;;;;;5029160;28;19920;-79